Time;durP1;ratioP1;P1;durP2;ratioP2;P2;SDS_P1;SDS_P2;PMS_P1;PMS_P2;Temp;Humidity;BMP_temperature;BMP_pressure;BME280_temperature;BME280_humidity;BME280_pressure;Samples;Min_cycle;Max_cycle;Signal;HPM_P1;HPM_P2
2021/01/18 00:00:27;;;;;;;10.73;7.90;;;;;;;-8.77;100.00;96538.19;5113038;28;20506;-81
2021/01/18 00:02:55;;;;;;;17.57;11.33;;;;;;;-8.66;100.00;96550.69;5112843;28;20441;-80
2021/01/18 00:05:21;;;;;;;20.63;11.23;;;;;;;-8.53;100.00;96549.53;5112774;28;20524;-81
2021/01/18 00:07:49;;;;;;;10.77;7.50;;;;;;;-8.41;100.00;96556.06;5112649;28;20546;-82
2021/01/18 00:10:18;;;;;;;8.53;6.17;;;;;;;-8.41;100.00;96556.88;5113102;28;20473;-80
2021/01/18 00:12:46;;;;;;;9.20;5.43;;;;;;;-8.23;100.00;96557.28;5112444;28;20437;-81
2021/01/18 00:15:16;;;;;;;6.93;5.27;;;;;;;-8.26;100.00;96559.91;5112732;28;20445;-81
2021/01/18 00:17:43;;;;;;;9.37;5.43;;;;;;;-8.32;100.00;96565.16;5112606;28;20473;-81
2021/01/18 00:20:12;;;;;;;10.07;6.93;;;;;;;-8.37;100.00;96561.00;5112338;28;20449;-81
2021/01/18 00:22:39;;;;;;;9.50;6.47;;;;;;;-8.18;100.00;96570.75;5112262;28;20454;-81
2021/01/18 00:25:11;;;;;;;7.73;5.83;;;;;;;-8.09;100.00;96567.97;5112678;28;20472;-81
2021/01/18 00:27:39;;;;;;;10.97;6.57;;;;;;;-8.33;100.00;96574.50;5112378;28;20818;-80
2021/01/18 00:30:09;;;;;;;10.27;6.97;;;;;;;-8.28;100.00;96580.31;5112666;28;20514;-81
2021/01/18 00:32:36;;;;;;;7.50;5.13;;;;;;;-8.21;100.00;96581.00;5112394;28;20437;-81
2021/01/18 00:35:03;;;;;;;8.83;6.33;;;;;;;-8.29;100.00;96576.09;5112421;28;20484;-81
2021/01/18 00:37:31;;;;;;;10.93;6.40;;;;;;;-8.34;100.00;96564.38;5112136;28;20483;-81
2021/01/18 00:39:58;;;;;;;13.33;7.77;;;;;;;-8.27;100.00;96571.00;5112418;28;20437;-80
2021/01/18 00:42:24;;;;;;;13.63;8.07;;;;;;;-8.33;100.00;96574.50;5112155;28;20524;-81
2021/01/18 00:44:51;;;;;;;13.87;9.27;;;;;;;-8.62;100.00;96570.16;5112376;28;20430;-81
2021/01/18 00:47:18;;;;;;;11.83;8.00;;;;;;;-8.42;100.00;96574.75;5112267;28;20444;-82
2021/01/18 00:49:45;;;;;;;10.57;7.80;;;;;;;-8.28;100.00;96582.03;5112454;28;20960;-81
2021/01/18 00:52:14;;;;;;;8.83;6.83;;;;;;;-8.29;100.00;96571.00;5112177;28;20437;-81
2021/01/18 00:54:42;;;;;;;8.77;6.67;;;;;;;-8.29;100.00;96580.38;5112024;28;20530;-81
2021/01/18 00:57:09;;;;;;;17.97;9.83;;;;;;;-8.18;100.00;96568.19;5112006;28;20481;-81
2021/01/18 00:59:36;;;;;;;36.63;16.30;;;;;;;-8.35;100.00;96573.69;5112283;28;20568;-81
2021/01/18 01:02:03;;;;;;;32.83;15.60;;;;;;;-8.57;100.00;96568.31;5112019;28;20445;-81
2021/01/18 01:04:29;;;;;;;19.60;9.77;;;;;;;-8.31;100.00;96572.78;5112111;28;20437;-81
2021/01/18 01:06:56;;;;;;;14.60;9.10;;;;;;;-8.29;100.00;96571.00;5111803;28;20441;-81
2021/01/18 01:09:23;;;;;;;12.97;8.37;;;;;;;-8.16;100.00;96564.75;5112113;28;20941;-81
2021/01/18 01:11:51;;;;;;;12.00;9.73;;;;;;;-8.22;100.00;96577.63;5112462;28;20886;-81
2021/01/18 01:14:17;;;;;;;20.67;12.20;;;;;;;-8.15;100.00;96578.31;5112389;28;20445;-82
2021/01/18 01:16:44;;;;;;;24.43;13.97;;;;;;;-8.21;100.00;96586.13;5111657;28;20559;-81
2021/01/18 01:19:11;;;;;;;25.83;14.67;;;;;;;-8.23;100.00;96572.59;5112329;28;20545;-81
2021/01/18 01:21:38;;;;;;;30.27;15.33;;;;;;;-8.34;100.00;96572.00;5112196;28;20874;-81
2021/01/18 01:24:06;;;;;;;29.67;14.53;;;;;;;-8.40;100.00;96576.41;5112356;28;20789;-81
2021/01/18 01:26:33;;;;;;;28.10;14.00;;;;;;;-8.32;100.00;96576.19;5111574;28;20433;-81
2021/01/18 01:29:01;;;;;;;34.70;17.57;;;;;;;-8.24;100.00;96581.94;5111930;28;20498;-81
2021/01/18 01:31:28;;;;;;;37.80;19.00;;;;;;;-8.29;100.00;96576.09;5112730;28;20455;-81
2021/01/18 01:33:54;;;;;;;29.17;17.37;;;;;;;-8.34;100.00;96574.56;5116173;28;20519;-81
2021/01/18 01:36:21;;;;;;;26.97;17.53;;;;;;;-8.48;100.00;96573.22;5115742;28;20472;-81
2021/01/18 01:38:48;;;;;;;39.63;22.03;;;;;;;-8.43;100.00;96573.91;5115647;28;20480;-81
2021/01/18 01:41:15;;;;;;;16.37;11.50;;;;;;;-8.73;100.00;96577.16;5115639;28;20434;-81
2021/01/18 01:43:42;;;;;;;12.43;8.60;;;;;;;-8.78;100.00;96581.53;5116062;27;20502;-81
2021/01/18 01:46:11;;;;;;;19.33;12.13;;;;;;;-8.74;100.00;96575.50;5115403;28;20962;-81
2021/01/18 01:48:38;;;;;;;16.40;9.03;;;;;;;-8.64;100.00;96582.06;5115510;28;20452;-81
2021/01/18 01:51:05;;;;;;;10.73;6.67;;;;;;;-8.59;100.00;96587.06;5115460;28;20476;-81
2021/01/18 01:53:34;;;;;;;6.43;4.33;;;;;;;-8.48;100.00;96588.50;5115401;28;20436;-81
2021/01/18 01:56:02;;;;;;;8.37;5.40;;;;;;;-8.37;100.00;96594.16;5115183;28;20480;-81
2021/01/18 01:58:30;;;;;;;5.03;4.50;;;;;;;-8.38;100.00;96584.84;5115164;28;20991;-81
2021/01/18 02:00:59;;;;;;;6.37;5.30;;;;;;;-8.32;100.00;96590.63;5115678;28;20445;-81
2021/01/18 02:03:39;;;;;;;7.10;4.93;;;;;;;-8.31;100.00;96588.06;5115317;28;20475;-81
2021/01/18 02:06:06;;;;;;;7.43;4.70;;;;;;;-8.31;100.00;96582.97;5115512;28;20971;-81
2021/01/18 02:08:33;;;;;;;4.33;3.93;;;;;;;-8.16;100.00;96592.78;5115426;28;20453;-81
2021/01/18 02:11:00;;;;;;;5.40;4.07;;;;;;;-8.27;100.00;96592.22;5115021;28;20890;-81
2021/01/18 02:13:44;;;;;;;5.83;4.30;;;;;;;-8.31;100.00;96592.31;5115107;28;20437;-81
2021/01/18 02:16:21;;;;;;;4.97;4.10;;;;;;;-8.25;100.00;96589.63;5115051;28;20520;-81
2021/01/18 02:19:01;;;;;;;4.63;3.93;;;;;;;-8.17;100.00;96595.38;5115111;28;20808;-81
2021/01/18 02:22:12;;;;;;;9.23;5.27;;;;;;;-8.11;100.00;96595.22;5114979;28;20437;-81
2021/01/18 02:25:14;;;;;;;8.40;4.27;;;;;;;-8.15;100.00;96586.81;5115258;28;20469;-81
2021/01/18 02:28:05;;;;;;;6.30;4.37;;;;;;;-7.95;100.00;96586.31;5111902;28;20539;-81
2021/01/18 02:31:02;;;;;;;8.17;4.63;;;;;;;-7.88;100.00;96588.72;5115193;28;20804;-81
2021/01/18 02:34:11;;;;;;;5.17;4.20;;;;;;;-7.87;100.00;96587.84;5114632;28;20825;-81
2021/01/18 02:36:48;;;;;;;8.07;4.10;;;;;;;-8.02;100.00;96579.69;5114456;28;20499;-81
2021/01/18 02:39:29;;;;;;;8.07;4.33;;;;;;;-8.07;100.00;96578.13;5114691;28;20421;-81
2021/01/18 02:42:00;;;;;;;5.97;3.83;;;;;;;-8.18;100.00;96589.44;5114404;28;20457;-82
2021/01/18 02:44:29;;;;;;;6.43;4.30;;;;;;;-8.22;100.00;96589.56;5114563;28;20489;-81
2021/01/18 02:46:58;;;;;;;4.67;3.70;;;;;;;-8.22;100.00;96587.00;5114475;28;20876;-81
2021/01/18 02:49:25;;;;;;;5.33;3.90;;;;;;;-8.27;100.00;96592.22;5114431;28;20445;-81
2021/01/18 02:52:01;;;;;;;4.43;4.03;;;;;;;-8.15;100.00;96598.72;5114601;28;20884;-81
2021/01/18 02:54:27;;;;;;;4.37;3.67;;;;;;;-8.15;100.00;96598.72;5114107;28;20525;-81
2021/01/18 02:56:54;;;;;;;5.53;4.33;;;;;;;-8.14;100.00;96595.28;5113856;28;20468;-81
2021/01/18 02:59:22;;;;;;;7.17;4.90;;;;;;;-8.21;100.00;96591.22;5114292;28;20540;-81
2021/01/18 03:02:01;;;;;;;6.40;4.53;;;;;;;-8.11;100.00;96595.22;5114005;28;21073;-81
2021/01/18 03:05:06;;;;;;;5.17;4.07;;;;;;;-8.15;100.00;96597.00;5113865;28;20784;-81
2021/01/18 03:07:44;;;;;;;5.37;4.43;;;;;;;-8.17;100.00;96593.69;5077577;28;20445;-81
2021/01/18 03:10:18;;;;;;;4.00;3.60;;;;;;;-8.18;100.00;96606.44;5114377;28;20796;-81
2021/01/18 03:12:49;;;;;;;7.70;5.37;;;;;;;-8.04;100.00;96596.75;5113931;28;20425;-81
2021/01/18 03:15:19;;;;;;;5.07;4.20;;;;;;;-8.01;100.00;96600.94;5113960;27;20422;-81
2021/01/18 03:17:47;;;;;;;5.87;4.00;;;;;;;-7.97;100.00;96599.97;5113821;28;20468;-80
2021/01/18 03:20:15;;;;;;;5.90;4.63;;;;;;;-7.87;100.00;96598.88;5113798;28;20491;-80
2021/01/18 03:22:43;;;;;;;5.60;3.83;;;;;;;-7.81;100.00;96603.00;5113670;28;20425;-81
2021/01/18 03:25:11;;;;;;;6.53;4.70;;;;;;;-8.03;100.00;96611.19;5113762;28;20441;-82
2021/01/18 03:27:50;;;;;;;4.27;3.73;;;;;;;-8.01;100.00;96601.78;5113617;28;20465;-80
2021/01/18 03:30:19;;;;;;;4.73;3.80;;;;;;;-8.05;100.00;96609.53;5113751;28;20425;-80
2021/01/18 03:32:49;;;;;;;4.67;3.80;;;;;;;-8.07;100.00;96606.19;5112462;28;20445;-81
2021/01/18 03:35:16;;;;;;;9.20;4.17;;;;;;;-8.05;100.00;96612.94;5112072;28;20437;-82
2021/01/18 03:37:44;;;;;;;7.97;4.30;;;;;;;-7.99;100.00;96609.41;5111534;28;21016;-81
2021/01/18 03:40:13;;;;;;;4.60;3.87;;;;;;;-7.88;100.00;96604.03;5111963;28;21005;-81
2021/01/18 03:42:40;;;;;;;3.93;3.53;;;;;;;-7.94;100.00;96605.84;5109564;28;20434;-81
2021/01/18 03:45:07;;;;;;;5.90;4.17;;;;;;;-7.90;100.00;96602.38;5111643;28;20452;-81
2021/01/18 03:47:34;;;;;;;4.03;3.60;;;;;;;-7.86;100.00;96604.81;5111644;28;20513;-81
2021/01/18 03:50:01;;;;;;;4.47;3.20;;;;;;;-7.97;100.00;96602.53;5111799;28;20440;-80
2021/01/18 03:52:27;;;;;;;4.27;3.87;;;;;;;-7.88;100.00;96601.47;5111386;28;20963;-80
2021/01/18 03:54:55;;;;;;;4.23;3.43;;;;;;;-7.91;100.00;96613.41;5110778;28;20461;-80
2021/01/18 03:57:22;;;;;;;6.87;4.40;;;;;;;-8.00;100.00;96603.47;5108977;28;20512;-80
2021/01/18 03:59:49;;;;;;;4.57;4.10;;;;;;;-7.83;100.00;96610.66;5111448;28;20509;-80
2021/01/18 04:02:15;;;;;;;5.67;3.83;;;;;;;-7.82;100.00;96602.16;5111803;28;20817;-80
2021/01/18 04:04:42;;;;;;;6.77;4.13;;;;;;;-7.86;100.00;96609.91;5111206;28;20445;-80
2021/01/18 04:07:10;;;;;;;7.57;5.00;;;;;;;-7.75;100.00;96621.53;5111402;28;20498;-80
2021/01/18 04:09:37;;;;;;;4.47;3.77;;;;;;;-7.92;100.00;96626.22;5111510;28;20441;-79
2021/01/18 04:12:06;;;;;;;4.57;4.13;;;;;;;-7.87;100.00;96621.00;5111145;28;20449;-80
2021/01/18 04:14:33;;;;;;;4.77;3.67;;;;;;;-7.82;100.00;96622.56;5111366;28;20445;-80
2021/01/18 04:17:00;;;;;;;4.23;3.40;;;;;;;-7.96;100.00;96630.56;5110836;28;20465;-80
2021/01/18 04:19:26;;;;;;;5.33;3.80;;;;;;;-7.80;100.00;96625.06;5111306;28;20946;-80
2021/01/18 04:21:53;;;;;;;5.37;3.50;;;;;;;-7.96;100.00;96628.03;5106893;28;20449;-82
2021/01/18 04:24:45;;;;;;;;;;;;;;;;;;;;;
2021/01/18 04:27:13;;;;;;;5.67;4.90;;;;;;;-7.90;100.00;96632.97;5096794;28;20430;-79
2021/01/18 04:29:39;;;;;;;15.13;8.97;;;;;;;-7.79;100.00;96630.16;5110312;28;20477;-80
2021/01/18 04:32:06;;;;;;;9.33;7.30;;;;;;;-7.97;100.00;96631.41;5110347;28;20863;-80
2021/01/18 04:34:33;;;;;;;11.63;8.43;;;;;;;-8.08;100.00;96633.41;5110158;28;20438;-79
2021/01/18 04:37:01;;;;;;;11.03;7.67;;;;;;;-8.06;100.00;96641.88;5108904;28;20571;-80
2021/01/18 04:39:28;;;;;;;7.87;6.27;;;;;;;-8.07;100.00;96630.00;5109834;28;20441;-80
2021/01/18 04:41:59;;;;;;;5.60;4.90;;;;;;;-8.05;100.00;96635.88;5110319;28;20441;-81
2021/01/18 04:44:28;;;;;;;12.33;7.03;;;;;;;-8.33;100.00;96634.88;5110188;28;20465;-81
2021/01/18 04:46:55;;;;;;;7.67;6.37;;;;;;;-8.64;100.00;96646.59;5109507;28;20441;-81
2021/01/18 04:49:23;;;;;;;9.70;5.67;;;;;;;-8.60;100.00;96657.56;5109106;28;20448;-80
2021/01/18 04:51:52;;;;;;;4.83;4.33;;;;;;;-8.32;100.00;96647.56;5109518;28;20449;-80
2021/01/18 04:54:21;;;;;;;5.73;4.57;;;;;;;-8.19;100.00;96648.13;5109829;28;20866;-80
2021/01/18 04:57:10;;;;;;;5.50;4.70;;;;;;;-8.21;100.00;96649.88;5109682;28;21025;-80
2021/01/18 04:59:43;;;;;;;7.87;6.47;;;;;;;-8.21;100.00;96649.88;5095438;28;21014;-80
2021/01/18 05:02:14;;;;;;;14.70;8.13;;;;;;;-8.18;100.00;96654.91;5109760;28;20441;-80
2021/01/18 05:04:42;;;;;;;11.37;7.77;;;;;;;-8.20;100.00;96659.22;5110046;28;20918;-80
2021/01/18 05:07:51;;;;;;;7.83;5.00;;;;;;;-8.05;100.00;96651.19;5111556;28;20433;-80
2021/01/18 05:10:27;;;;;;;9.73;6.57;;;;;;;-8.18;100.00;96665.09;5114216;28;20426;-82
2021/01/18 05:12:58;;;;;;;10.07;7.10;;;;;;;-8.50;100.00;96671.78;5114506;28;20432;-80
2021/01/18 05:15:26;;;;;;;8.33;6.83;;;;;;;-8.42;100.00;96675.00;5116667;28;20430;-81
2021/01/18 05:18:06;;;;;;;8.77;6.60;;;;;;;-8.35;100.00;96677.38;5115896;28;21022;-80
2021/01/18 05:20:33;;;;;;;7.10;5.63;;;;;;;-8.32;100.00;96683.25;5116055;28;20882;-80
2021/01/18 05:23:07;;;;;;;6.33;5.17;;;;;;;-8.25;100.00;96676.31;5116123;28;20449;-79
2021/01/18 05:25:34;;;;;;;6.13;5.50;;;;;;;-8.27;100.00;96675.53;5116104;28;20431;-81
2021/01/18 05:28:04;;;;;;;9.70;6.57;;;;;;;-8.43;100.00;96675.88;5115828;28;20437;-80
2021/01/18 05:30:33;;;;;;;25.67;17.37;;;;;;;-8.78;100.00;96670.72;5115820;28;20437;-80
2021/01/18 05:33:02;;;;;;;60.27;30.63;;;;;;;-9.00;100.00;96673.69;5114850;28;20440;-80
2021/01/18 05:35:29;;;;;;;39.53;21.43;;;;;;;-8.93;100.00;96675.25;5116173;28;20875;-80
2021/01/18 05:37:57;;;;;;;23.73;14.20;;;;;;;-9.01;100.00;96672.00;5115289;28;20480;-80
2021/01/18 05:40:25;;;;;;;14.37;9.20;;;;;;;-9.17;100.00;96674.03;5116107;28;20429;-80
2021/01/18 05:42:53;;;;;;;9.40;5.87;;;;;;;-9.54;100.00;96684.03;5115588;28;20528;-80
2021/01/18 05:45:28;;;;;;;11.03;5.90;;;;;;;-9.46;100.00;96681.34;5115504;28;20512;-80
2021/01/18 05:47:57;;;;;;;10.30;7.80;;;;;;;-9.04;100.00;96683.97;5115848;28;20501;-80
2021/01/18 05:50:26;;;;;;;13.27;10.60;;;;;;;-9.30;100.00;96681.94;5115953;28;20441;-80
2021/01/18 05:52:53;;;;;;;14.40;10.77;;;;;;;-9.26;100.00;96686.91;5115412;28;20533;-80
2021/01/18 05:55:21;;;;;;;10.27;7.43;;;;;;;-9.23;100.00;96691.13;5115165;28;20480;-79
2021/01/18 05:57:50;;;;;;;10.07;7.17;;;;;;;-9.36;100.00;96688.78;5115220;28;20893;-80
2021/01/18 06:00:35;;;;;;;19.30;12.00;;;;;;;-8.96;100.00;96684.66;5115742;28;20949;-80
2021/01/18 06:03:09;;;;;;;12.27;7.30;;;;;;;-8.51;100.00;96682.88;5115328;28;20453;-79
2021/01/18 06:05:37;;;;;;;17.33;8.73;;;;;;;-8.77;100.00;96685.94;5115397;28;20436;-80
2021/01/18 06:08:12;;;;;;;29.97;16.90;;;;;;;-8.65;100.00;96688.25;5115372;28;20441;-80
2021/01/18 06:10:39;;;;;;;11.67;10.43;;;;;;;-8.93;100.00;96688.00;5114990;28;20437;-80
2021/01/18 06:13:18;;;;;;;16.83;11.07;;;;;;;-8.92;100.00;96696.47;5114998;28;20456;-80
2021/01/18 06:15:46;;;;;;;22.57;13.93;;;;;;;-8.96;100.00;96702.50;5115555;28;20437;-80
2021/01/18 06:18:15;;;;;;;23.30;13.97;;;;;;;-9.03;100.00;96706.88;5114168;28;20996;-80
2021/01/18 06:20:43;;;;;;;19.40;12.17;;;;;;;-9.19;100.00;96708.84;5114830;28;20816;-80
2021/01/18 06:23:11;;;;;;;17.40;10.70;;;;;;;-9.22;100.00;96718.25;5114833;28;20478;-80
2021/01/18 06:25:39;;;;;;;12.60;7.93;;;;;;;-8.91;100.00;96719.34;5114862;28;20536;-80
2021/01/18 06:28:24;;;;;;;7.37;5.97;;;;;;;-8.87;100.00;96721.00;5115065;28;20448;-80
2021/01/18 06:30:59;;;;;;;7.97;5.07;;;;;;;-8.90;100.00;96715.09;5114997;28;20425;-80
2021/01/18 06:33:41;;;;;;;12.60;6.63;;;;;;;-8.68;100.00;96720.63;5114739;28;20432;-81
2021/01/18 06:36:26;;;;;;;10.10;8.07;;;;;;;-8.71;100.00;96716.41;5114939;28;20422;-80
2021/01/18 06:39:03;;;;;;;11.43;6.37;;;;;;;-8.93;100.00;96710.09;5114869;28;20840;-80
2021/01/18 06:41:31;;;;;;;7.13;5.00;;;;;;;-8.75;100.00;96719.91;5114259;28;20429;-81
2021/01/18 06:43:59;;;;;;;12.03;7.90;;;;;;;-8.39;100.00;96720.00;5114795;28;20456;-81
2021/01/18 06:46:29;;;;;;;35.80;13.40;;;;;;;-8.13;100.00;96721.94;5114384;28;20949;-80
2021/01/18 06:48:58;;;;;;;11.00;7.27;;;;;;;-8.21;100.00;96726.38;5114501;28;20421;-81
2021/01/18 06:51:25;;;;;;;10.77;6.10;;;;;;;-8.32;100.00;96733.41;5114558;28;20868;-80
2021/01/18 06:53:54;;;;;;;12.40;8.13;;;;;;;-8.11;100.00;96732.09;5114485;28;20461;-80
2021/01/18 06:56:54;;;;;;;11.00;7.90;;;;;;;-7.96;100.00;96735.16;5114149;28;20897;-80
2021/01/18 06:59:36;;;;;;;13.97;9.17;;;;;;;-7.68;100.00;96732.81;5114387;28;20429;-80
2021/01/18 07:02:23;;;;;;;15.93;10.07;;;;;;;-7.40;100.00;96734.69;5113940;28;20457;-80
2021/01/18 07:04:52;;;;;;;39.17;23.40;;;;;;;-7.35;100.00;96734.56;5114767;28;20453;-80
2021/01/18 07:07:25;;;;;;;16.50;9.83;;;;;;;-7.27;100.00;96741.16;5113919;28;20437;-80
2021/01/18 07:09:57;;;;;;;6.43;5.10;;;;;;;-7.47;100.00;96735.72;5113955;28;20425;-80
2021/01/18 07:12:26;;;;;;;10.03;6.27;;;;;;;-7.33;100.00;96740.47;5113850;28;20532;-80
2021/01/18 07:15:01;;;;;;;17.40;8.73;;;;;;;-7.11;100.00;96746.69;5114287;28;20538;-81
2021/01/18 07:17:51;;;;;;;32.90;14.83;;;;;;;-6.65;100.00;96744.63;5113706;28;20985;-81
2021/01/18 07:20:24;;;;;;;27.70;15.23;;;;;;;-6.33;100.00;96748.84;5103734;28;20448;-81
2021/01/18 07:23:08;;;;;;;15.87;10.37;;;;;;;-6.18;100.00;96758.63;5113827;28;20425;-81
2021/01/18 07:25:36;;;;;;;12.13;8.23;;;;;;;-5.96;100.00;96753.69;5113876;28;20511;-81
2021/01/18 07:28:04;;;;;;;5.90;4.90;;;;;;;-5.96;100.00;96752.84;5113601;28;20433;-82
2021/01/18 07:30:32;;;;;;;8.00;5.80;;;;;;;-6.09;100.00;96763.47;5112441;28;20449;-81
2021/01/18 07:33:07;;;;;;;6.13;5.37;;;;;;;-5.74;100.00;96761.53;5113675;28;20490;-81
2021/01/18 07:35:36;;;;;;;6.83;4.90;;;;;;;-5.73;100.00;96765.75;5113603;28;20536;-81
2021/01/18 07:38:14;;;;;;;7.97;7.13;;;;;;;-5.61;100.00;96764.53;5113146;28;20473;-81
2021/01/18 07:40:42;;;;;;;9.20;6.90;;;;;;;-5.31;100.00;96766.13;5113337;28;20964;-81
2021/01/18 07:43:32;;;;;;;9.77;7.70;;;;;;;-5.14;100.00;96764.75;5113208;28;20449;-82
2021/01/18 07:46:39;;;;;;;11.23;7.97;;;;;;;-4.62;100.00;96763.78;5113578;28;20463;-81
2021/01/18 07:49:45;;;;;;;8.83;7.00;;;;;;;-4.55;100.00;96770.38;5111002;28;20869;-81
2021/01/18 07:52:17;;;;;;;8.27;6.70;;;;;;;-4.53;100.00;96772.91;5113060;28;20429;-82
2021/01/18 07:54:44;;;;;;;7.40;5.70;;;;;;;-4.77;100.00;96774.59;5113060;28;20515;-82
2021/01/18 07:57:41;;;;;;;5.60;3.97;;;;;;;-5.36;100.00;96774.88;5113174;28;20580;-82
2021/01/18 08:00:33;;;;;;;8.43;4.43;;;;;;;-4.85;100.00;96780.00;5113272;28;20434;-82
2021/01/18 08:03:24;;;;;;;5.03;4.30;;;;;;;-4.84;100.00;96775.69;5112597;28;20453;-81
2021/01/18 08:06:02;;;;;;;6.07;4.40;;;;;;;-4.68;100.00;96779.38;5112878;28;20436;-82
2021/01/18 08:08:30;;;;;;;9.13;3.93;;;;;;;-4.86;100.00;96777.47;5113553;28;20452;-81
2021/01/18 08:11:00;;;;;;;8.27;4.97;;;;;;;-4.36;100.00;96782.56;5112884;28;20441;-82
2021/01/18 08:13:47;;;;;;;9.43;6.43;;;;;;;-4.43;100.00;96778.56;5112754;28;20524;-82
2021/01/18 08:16:40;;;;;;;4.60;3.33;;;;;;;-4.66;100.00;96781.91;5112692;28;20432;-80
2021/01/18 08:19:10;;;;;;;7.10;4.60;;;;;;;-4.75;100.00;96777.94;5112784;28;20487;-82
2021/01/18 08:21:48;;;;;;;8.20;6.23;;;;;;;-4.50;100.00;96779.63;5112422;28;20531;-82
2021/01/18 08:24:37;;;;;;;5.83;5.17;;;;;;;-3.86;100.00;96778.13;5112644;28;20457;-81
2021/01/18 08:27:05;;;;;;;5.80;5.10;;;;;;;-3.44;100.00;96784.22;5112583;28;20444;-82
2021/01/18 08:29:34;;;;;;;6.23;4.93;;;;;;;-3.25;100.00;96782.59;5112624;28;20437;-83
2021/01/18 08:32:35;;;;;;;5.97;4.87;;;;;;;-2.91;100.00;96771.78;5112370;28;20826;-82
2021/01/18 08:35:04;;;;;;;5.47;4.27;;;;;;;-3.18;100.00;96773.75;5112991;28;20974;-83
2021/01/18 08:37:33;;;;;;;6.80;4.03;;;;;;;-3.33;100.00;96769.19;5112362;28;21004;-82
2021/01/18 08:40:04;;;;;;;4.60;3.50;;;;;;;-3.18;100.00;96775.47;5112486;28;20446;-82
2021/01/18 08:42:33;;;;;;;5.53;4.00;;;;;;;-3.06;100.00;96776.69;5112294;28;20440;-82
2021/01/18 08:45:01;;;;;;;5.77;3.60;;;;;;;-2.64;100.00;96774.91;5112218;28;20488;-82
2021/01/18 08:47:39;;;;;;;3.70;2.93;;;;;;;-2.74;100.00;96778.75;5112217;28;20441;-81
2021/01/18 08:50:20;;;;;;;4.30;3.20;;;;;;;-2.73;100.00;96767.59;5112567;28;20514;-81
2021/01/18 08:52:47;;;;;;;6.57;4.17;;;;;;;-2.42;100.00;96774.81;5112445;28;20199;-82
2021/01/18 08:55:52;;;;;;;4.40;3.60;;;;;;;-2.00;100.00;96773.81;5112060;28;21024;-81
2021/01/18 08:58:37;;;;;;;7.10;4.43;;;;;;;-1.84;100.00;96768.78;5111979;28;20744;-82
2021/01/18 09:01:06;;;;;;;3.63;2.90;;;;;;;-1.82;100.00;96766.16;5112535;28;20429;-82
2021/01/18 09:03:33;;;;;;;3.47;3.17;;;;;;;-0.96;100.00;96760.31;5112463;28;20227;-82
2021/01/18 09:06:00;;;;;;;4.10;2.77;;;;;;;-0.15;100.00;96758.72;5111872;28;20772;-81
2021/01/18 09:08:28;;;;;;;4.73;3.00;;;;;;;-0.37;100.00;96750.44;5112151;28;20298;-82
2021/01/18 09:10:57;;;;;;;4.50;2.73;;;;;;;-0.30;100.00;96744.03;5112103;28;20668;-82
2021/01/18 09:13:25;;;;;;;4.30;2.93;;;;;;;-0.56;100.00;96748.78;5112341;28;20672;-82
2021/01/18 09:15:54;;;;;;;8.30;5.60;;;;;;;-0.66;100.00;96749.34;5112296;28;20199;-82
2021/01/18 09:18:22;;;;;;;9.30;6.80;;;;;;;-0.11;100.00;96749.06;5112088;28;20299;-82
2021/01/18 09:20:50;;;;;;;8.13;6.63;;;;;;;0.17;100.00;96758.75;5112333;28;20227;-83
2021/01/18 09:23:18;;;;;;;2.67;2.47;;;;;;;0.20;100.00;96749.09;5111948;28;20196;-82
2021/01/18 09:25:46;;;;;;;3.80;3.37;;;;;;;0.26;100.00;96744.50;5111835;28;20196;-82
2021/01/18 09:28:14;;;;;;;6.80;5.13;;;;;;;0.26;100.00;96742.75;5112209;28;20196;-83
2021/01/18 09:30:42;;;;;;;7.70;3.23;;;;;;;0.75;100.00;96736.59;5112170;28;20284;-83
2021/01/18 09:33:11;;;;;;;3.97;2.97;;;;;;;0.91;100.00;96732.25;5112173;28;20225;-83
2021/01/18 09:35:40;;;;;;;7.63;4.00;;;;;;;1.47;100.00;96728.09;5111773;28;20317;-83
2021/01/18 09:38:08;;;;;;;6.43;4.33;;;;;;;1.45;100.00;96732.50;5111719;28;20254;-83
2021/01/18 09:40:38;;;;;;;4.43;3.87;;;;;;;1.10;100.00;96719.88;5112238;28;20294;-82
2021/01/18 09:43:06;;;;;;;4.97;4.47;;;;;;;0.89;100.00;96716.78;5111836;28;20199;-83
2021/01/18 09:45:33;;;;;;;4.10;2.87;;;;;;;0.73;100.00;96721.19;5111846;28;20208;-83
2021/01/18 09:48:03;;;;;;;3.83;3.20;;;;;;;1.71;100.00;96709.41;5111706;28;20191;-83
2021/01/18 09:50:31;;;;;;;4.00;3.60;;;;;;;1.44;100.00;96707.53;5111833;28;20192;-83
2021/01/18 09:52:59;;;;;;;5.20;3.90;;;;;;;1.04;100.00;96703.88;5113141;28;20200;-82
2021/01/18 09:55:28;;;;;;;4.53;3.40;;;;;;;0.59;100.00;96703.00;5115630;28;20318;-83
2021/01/18 09:58:01;;;;;;;13.17;7.30;;;;;;;0.91;100.00;96696.84;5115275;28;20226;-83
2021/01/18 10:00:31;;;;;;;3.17;2.83;;;;;;;1.30;100.00;96699.75;5115518;28;20187;-83
2021/01/18 10:03:00;;;;;;;4.40;2.87;;;;;;;1.99;100.00;96693.81;5115678;28;20195;-83
2021/01/18 10:05:34;;;;;;;4.90;3.53;;;;;;;1.44;100.00;96692.00;5115664;28;20195;-83
2021/01/18 10:08:05;;;;;;;4.03;3.23;;;;;;;2.74;100.00;96685.63;5115211;28;20275;-83
2021/01/18 10:10:51;;;;;;;3.90;3.00;;;;;;;3.23;100.00;96684.97;5115105;28;20215;-83
2021/01/18 10:13:19;;;;;;;4.27;3.40;;;;;;;2.12;100.00;96681.75;5115079;28;20184;-83
2021/01/18 10:15:48;;;;;;;3.57;2.93;;;;;;;2.99;100.00;96670.06;5115202;28;20206;-83
2021/01/18 10:18:32;;;;;;;4.33;3.20;;;;;;;2.22;100.00;96675.97;5115322;28;20624;-83
2021/01/18 10:21:00;;;;;;;7.60;4.73;;;;;;;2.36;100.00;96669.00;5115050;28;20184;-83
2021/01/18 10:23:31;;;;;;;6.43;4.80;;;;;;;2.79;100.00;96667.97;5115244;28;20195;-84
2021/01/18 10:26:19;;;;;;;3.53;3.23;;;;;;;2.80;100.00;96665.25;5114777;28;20575;-83
2021/01/18 10:28:52;;;;;;;3.33;2.93;;;;;;;3.75;100.00;96661.44;5115843;28;20609;-83
2021/01/18 10:31:19;;;;;;;4.03;3.03;;;;;;;3.32;100.00;96650.53;5114831;28;20547;-83
2021/01/18 10:33:46;;;;;;;3.10;2.80;;;;;;;2.02;100.00;96648.72;5115237;28;20639;-84
2021/01/18 10:36:35;;;;;;;7.00;4.33;;;;;;;2.48;100.00;96649.19;5114619;28;20229;-84
2021/01/18 10:39:01;;;;;;;5.20;4.23;;;;;;;2.95;100.00;96642.66;5114736;28;20744;-84
2021/01/18 10:41:32;;;;;;;13.47;7.87;;;;;;;1.16;100.00;96648.81;5114449;28;20223;-84
2021/01/18 10:44:04;;;;;;;10.17;7.47;;;;;;;1.55;100.00;96645.53;5115005;28;20271;-83
2021/01/18 10:46:31;;;;;;;5.43;4.50;;;;;;;1.97;100.00;96638.63;5114512;28;20271;-83
2021/01/18 10:48:59;;;;;;;4.70;4.23;;;;;;;3.21;100.00;96637.47;5114347;28;20194;-83
2021/01/18 10:51:26;;;;;;;4.60;3.30;;;;;;;4.09;100.00;96629.59;5114589;28;20223;-83
2021/01/18 10:53:58;;;;;;;4.73;4.23;;;;;;;4.31;100.00;96629.72;5114687;28;20195;-83
2021/01/18 10:56:32;;;;;;;6.57;4.10;;;;;;;4.12;100.00;96631.97;5113947;28;20242;-83
2021/01/18 10:59:00;;;;;;;6.10;4.13;;;;;;;4.07;100.00;96632.31;5114177;28;20203;-83
2021/01/18 11:01:27;;;;;;;5.73;5.17;;;;;;;3.36;100.00;96620.84;5114234;28;20200;-83
2021/01/18 11:04:03;;;;;;;6.43;5.57;;;;;;;2.85;100.00;96616.47;5114197;28;20195;-84
2021/01/18 11:06:35;;;;;;;6.40;5.00;;;;;;;3.27;100.00;96613.66;5113865;28;20183;-83
2021/01/18 11:09:04;;;;;;;7.90;5.47;;;;;;;3.72;100.00;96612.25;5114118;28;20267;-83
2021/01/18 11:11:31;;;;;;;7.90;4.87;;;;;;;3.33;100.00;96610.66;5113927;28;20199;-82
2021/01/18 11:14:02;;;;;;;9.10;5.57;;;;;;;3.12;100.00;96612.09;5114098;28;20243;-83
2021/01/18 11:16:29;;;;;;;5.83;4.83;;;;;;;2.52;100.00;96603.94;5113630;28;20199;-83
2021/01/18 11:19:01;;;;;;;9.23;6.20;;;;;;;3.28;100.00;96607.53;5113854;28;20315;-84
2021/01/18 11:21:28;;;;;;;7.23;5.83;;;;;;;3.29;100.00;96604.00;5113713;28;20210;-84
2021/01/18 11:23:56;;;;;;;6.73;5.30;;;;;;;2.81;100.00;96603.81;5114143;28;20200;-84
2021/01/18 11:26:24;;;;;;;5.83;4.37;;;;;;;3.57;100.00;96603.75;5113190;28;20290;-84
2021/01/18 11:28:51;;;;;;;6.40;4.83;;;;;;;3.32;100.00;96603.78;5113731;28;20235;-84
2021/01/18 11:31:18;;;;;;;6.20;4.70;;;;;;;2.65;100.00;96603.16;5113696;28;20203;-83
2021/01/18 11:33:45;;;;;;;6.53;4.70;;;;;;;3.36;100.00;96607.00;5113944;28;20222;-84
2021/01/18 11:36:12;;;;;;;6.40;5.77;;;;;;;3.61;100.00;96606.16;5113203;28;20202;-84
2021/01/18 11:38:39;;;;;;;4.90;4.40;;;;;;;3.23;100.00;96609.63;5113541;28;20247;-84
2021/01/18 11:41:06;;;;;;;10.43;9.30;;;;;;;3.95;100.00;96602.81;5113190;28;20238;-84
2021/01/18 11:43:34;;;;;;;7.33;5.73;;;;;;;2.96;100.00;96602.75;5113687;28;20199;-84
2021/01/18 11:46:02;;;;;;;10.47;7.17;;;;;;;3.02;100.00;96601.53;5113435;28;20519;-84